Time;durP1;ratioP1;P1;durP2;ratioP2;P2;SDS_P1;SDS_P2;PMS_P1;PMS_P2;Temp;Humidity;BMP_temperature;BMP_pressure;BME280_temperature;BME280_humidity;BME280_pressure;Samples;Min_cycle;Max_cycle;Signal;HPM_P1;HPM_P2
2022/07/24 00:01:13;;;;;;;2.00;1.90;;;;;;;22.51;78.33;95808.69;4363981;32;20179;-61
2022/07/24 00:03:39;;;;;;;2.77;2.57;;;;;;;22.44;78.41;95810.47;4389460;32;20184;-60
2022/07/24 00:06:06;;;;;;;2.87;2.77;;;;;;;22.46;78.13;95810.88;4372257;32;20187;-60
2022/07/24 00:08:46;;;;;;;2.33;2.23;;;;;;;22.51;78.03;95810.59;4375348;32;20185;-60
2022/07/24 00:11:13;;;;;;;1.60;1.60;;;;;;;22.44;78.11;95810.47;4353592;32;20239;-60
2022/07/24 00:13:39;;;;;;;2.33;2.23;;;;;;;22.51;77.91;95819.50;4364773;32;20203;-60
2022/07/24 00:16:13;;;;;;;2.37;2.27;;;;;;;22.47;77.87;95804.34;4380786;32;20199;-60
2022/07/24 00:18:39;;;;;;;2.57;2.40;;;;;;;22.50;78.09;95812.53;4389246;32;20196;-60
2022/07/24 00:21:32;;;;;;;1.90;1.90;;;;;;;22.58;77.70;95808.03;4401574;32;20191;-61
2022/07/24 00:23:59;;;;;;;3.17;3.07;;;;;;;22.56;77.80;95800.28;4382494;32;20239;-60
2022/07/24 00:26:25;;;;;;;2.03;2.00;;;;;;;22.50;78.23;95807.09;4354638;32;20219;-61
2022/07/24 00:28:50;;;;;;;2.63;2.53;;;;;;;22.52;77.99;95815.66;4376616;32;20211;-61
2022/07/24 00:31:18;;;;;;;3.17;2.97;;;;;;;22.54;78.10;95805.25;4398987;32;20184;-60
2022/07/24 00:33:48;;;;;;;2.30;2.20;;;;;;;22.56;77.99;95805.69;4399229;32;20267;-61
2022/07/24 00:36:14;;;;;;;2.33;2.23;;;;;;;22.57;78.09;95796.44;4371906;32;20188;-60
2022/07/24 00:38:40;;;;;;;3.57;3.27;;;;;;;22.56;77.90;95789.47;4381787;32;20210;-60
2022/07/24 00:41:13;;;;;;;2.80;2.63;;;;;;;22.56;78.01;95794.88;4390444;32;20172;-61
2022/07/24 00:44:01;;;;;;;2.30;2.20;;;;;;;22.52;78.46;95795.94;4349659;32;20180;-60
2022/07/24 00:46:28;;;;;;;2.33;2.23;;;;;;;22.51;78.02;95803.28;4381603;32;20181;-60
2022/07/24 00:48:55;;;;;;;4.63;2.60;;;;;;;22.56;77.77;95807.59;4385274;32;20188;-61
2022/07/24 00:51:23;;;;;;;4.00;2.77;;;;;;;22.48;78.41;95803.19;4388406;32;20183;-61
2022/07/24 00:53:48;;;;;;;2.57;2.40;;;;;;;22.37;78.70;95797.59;4382035;32;20199;-60
2022/07/24 00:56:16;;;;;;;2.00;1.90;;;;;;;22.47;78.26;95797.00;4367098;32;20180;-61
2022/07/24 00:58:42;;;;;;;1.43;1.43;;;;;;;22.50;77.96;95807.09;4400741;32;20241;-60
2022/07/24 01:01:15;;;;;;;2.83;2.63;;;;;;;22.56;77.74;95804.91;4381857;32;20176;-60
2022/07/24 01:03:43;;;;;;;2.73;2.63;;;;;;;22.46;78.24;95805.47;4392658;32;20265;-60
2022/07/24 01:06:19;;;;;;;2.57;2.47;;;;;;;22.47;78.38;95807.03;4394651;32;20249;-60
2022/07/24 01:08:46;;;;;;;3.77;2.83;;;;;;;22.52;78.07;95810.25;4369523;32;20261;-60
2022/07/24 01:11:13;;;;;;;2.23;2.13;;;;;;;22.35;78.74;95805.28;4387864;32;20341;-61
2022/07/24 01:13:40;;;;;;;1.80;1.80;;;;;;;22.34;78.78;95809.13;4392656;32;20214;-61
2022/07/24 01:16:12;;;;;;;2.20;2.10;;;;;;;22.31;78.65;95803.63;4389531;32;20236;-60
2022/07/24 01:18:38;;;;;;;2.80;2.60;;;;;;;22.28;78.59;95800.50;4386218;32;20247;-61
2022/07/24 01:21:14;;;;;;;2.20;2.10;;;;;;;22.34;78.35;95798.31;4375754;32;20203;-60
2022/07/24 01:23:39;;;;;;;3.30;3.03;;;;;;;22.28;78.68;95800.50;4401416;32;20180;-60
2022/07/24 01:26:14;;;;;;;2.10;2.07;;;;;;;22.25;78.76;95803.13;4389764;32;20238;-60
2022/07/24 01:28:40;;;;;;;1.60;1.60;;;;;;;22.14;79.15;95805.62;4341441;32;20180;-60
2022/07/24 01:31:13;;;;;;;2.00;1.90;;;;;;;22.04;79.58;95795.38;4391018;32;20195;-60
2022/07/24 01:33:39;;;;;;;3.70;3.40;;;;;;;22.14;79.35;95802.94;4384583;32;20196;-60
2022/07/24 01:36:25;;;;;;;3.60;2.40;;;;;;;22.12;79.53;95802.50;4379484;32;20231;-60
2022/07/24 01:38:52;;;;;;;1.57;1.53;;;;;;;22.08;79.84;95801.63;4393206;32;20200;-63
2022/07/24 01:41:19;;;;;;;2.03;1.93;;;;;;;22.10;79.88;95799.38;4378055;32;20172;-60
2022/07/24 01:43:44;;;;;;;3.37;3.17;;;;;;;22.15;79.86;95795.59;4351486;32;20287;-60
2022/07/24 01:46:15;;;;;;;2.17;2.07;;;;;;;22.18;79.38;95798.38;4402265;32;20198;-61
2022/07/24 01:48:42;;;;;;;3.13;3.03;;;;;;;22.25;78.99;95792.31;4403215;32;20250;-61
2022/07/24 01:51:14;;;;;;;2.93;2.73;;;;;;;22.24;79.10;95790.75;4394286;32;20183;-60
2022/07/24 01:53:39;;;;;;;2.83;2.63;;;;;;;22.24;79.18;95788.06;4353552;32;20181;-60
2022/07/24 01:56:16;;;;;;;2.90;2.80;;;;;;;22.23;79.18;95792.69;4372145;32;20201;-60
2022/07/24 01:58:43;;;;;;;1.63;1.63;;;;;;;22.25;78.81;95781.50;4393191;32;20247;-61
2022/07/24 02:01:19;;;;;;;2.50;2.40;;;;;;;22.27;78.98;95781.94;4393734;32;20184;-60
2022/07/24 02:03:46;;;;;;;3.37;3.10;;;;;;;22.26;78.72;95775.75;4383734;32;20241;-61
2022/07/24 02:06:15;;;;;;;2.63;2.53;;;;;;;22.31;78.83;95782.00;4397141;32;20227;-61
2022/07/24 02:08:41;;;;;;;2.70;2.50;;;;;;;22.27;78.87;95787.34;4398833;32;20268;-61
2022/07/24 02:11:13;;;;;;;4.57;2.83;;;;;;;22.27;79.21;95787.34;4383964;32;20235;-60
2022/07/24 02:13:40;;;;;;;2.03;1.93;;;;;;;22.19;79.15;95781.03;4353739;32;20214;-60
2022/07/24 02:16:13;;;;;;;2.83;2.63;;;;;;;22.18;79.18;95779.47;4377285;32;20189;-60
2022/07/24 02:18:40;;;;;;;2.90;2.70;;;;;;;22.15;79.55;95785.56;4377861;32;20196;-61
2022/07/24 02:21:16;;;;;;;4.23;4.03;;;;;;;22.18;79.79;95784.09;4390114;32;20192;-60
2022/07/24 02:23:42;;;;;;;2.33;2.23;;;;;;;22.10;80.09;95780.44;4403156;32;20266;-60
2022/07/24 02:26:14;;;;;;;2.30;2.20;;;;;;;22.11;79.91;95776.59;4395250;32;20214;-60
2022/07/24 02:28:39;;;;;;;2.37;2.27;;;;;;;21.99;80.26;95773.25;4389852;32;20188;-60
2022/07/24 02:31:04;;;;;;;3.07;2.93;;;;;;;21.97;80.05;95778.22;4387016;32;20200;-61
2022/07/24 02:33:31;;;;;;;3.97;3.17;;;;;;;22.02;79.49;95770.66;4398151;32;20203;-60
2022/07/24 02:35:57;;;;;;;2.00;2.00;;;;;;;22.05;79.15;95771.84;4402327;32;20181;-60
2022/07/24 02:38:23;;;;;;;2.30;2.20;;;;;;;22.00;79.51;95777.50;4389081;32;20180;-60
2022/07/24 02:40:49;;;;;;;3.40;3.10;;;;;;;22.01;79.66;95769.09;4399583;32;20187;-60
2022/07/24 02:43:15;;;;;;;2.97;2.77;;;;;;;22.02;79.73;95769.88;4385320;32;20247;-60
2022/07/24 02:45:41;;;;;;;1.63;1.63;;;;;;;22.06;79.17;95776.09;4387659;32;20254;-61
2022/07/24 02:48:06;;;;;;;2.90;2.70;;;;;;;22.05;79.22;95775.31;4390115;32;20214;-60
2022/07/24 02:50:35;;;;;;;2.60;2.50;;;;;;;21.97;79.32;95778.22;4399839;32;20191;-60
2022/07/24 02:53:05;;;;;;;2.60;2.50;;;;;;;21.90;79.79;95779.63;4363129;32;20250;-60
2022/07/24 02:55:31;;;;;;;2.47;2.37;;;;;;;21.93;79.60;95786.25;4379820;32;20199;-60
2022/07/24 02:57:56;;;;;;;2.27;2.17;;;;;;;21.97;79.60;95784.41;4400882;32;20184;-61
2022/07/24 03:00:22;;;;;;;2.07;1.97;;;;;;;21.91;80.05;95786.59;4400125;32;20225;-62
2022/07/24 03:02:48;;;;;;;2.37;2.27;;;;;;;21.94;80.07;95785.91;4339084;32;20208;-60
2022/07/24 03:05:15;;;;;;;2.60;2.50;;;;;;;22.03;79.79;95788.41;4390088;32;20211;-60
2022/07/24 03:07:41;;;;;;;2.30;2.20;;;;;;;21.87;80.86;95788.44;4394061;32;20337;-61
2022/07/24 03:10:09;;;;;;;2.97;2.77;;;;;;;21.86;81.05;95788.78;4394937;32;20191;-61
2022/07/24 03:12:34;;;;;;;2.93;2.73;;;;;;;21.89;80.86;95777.28;4375739;32;20213;-60
2022/07/24 03:15:01;;;;;;;1.77;1.67;;;;;;;21.82;81.22;95777.91;4387497;32;20237;-61
2022/07/24 03:17:26;;;;;;;2.40;2.30;;;;;;;21.85;81.03;95779.91;4397474;32;20191;-60
2022/07/24 03:19:55;;;;;;;3.47;3.27;;;;;;;21.87;80.70;95777.63;4389427;32;20259;-61
2022/07/24 03:22:27;;;;;;;2.43;2.23;;;;;;;21.79;81.04;95778.63;4404685;32;20184;-60
2022/07/24 03:24:52;;;;;;;2.70;2.60;;;;;;;21.73;81.76;95780.03;4394757;32;20184;-61
2022/07/24 03:27:19;;;;;;;2.30;2.20;;;;;;;21.72;81.89;95781.19;4401067;32;20176;-61
2022/07/24 03:29:46;;;;;;;1.83;1.83;;;;;;;21.74;81.74;95778.13;4379820;32;20285;-60
2022/07/24 03:32:14;;;;;;;2.37;2.27;;;;;;;21.64;81.95;95775.97;4373472;32;20291;-61
2022/07/24 03:34:41;;;;;;;1.90;1.90;;;;;;;21.62;82.18;95776.31;4394643;32;20184;-60
2022/07/24 03:37:07;;;;;;;3.27;3.10;;;;;;;21.61;82.44;95772.06;4395832;32;20176;-60
2022/07/24 03:39:34;;;;;;;2.60;2.50;;;;;;;21.67;82.54;95780.66;4400590;32;20184;-60
2022/07/24 03:42:01;;;;;;;2.40;2.30;;;;;;;21.48;83.75;95784.09;4380445;32;20184;-60
2022/07/24 03:44:29;;;;;;;3.13;2.87;;;;;;;21.39;84.47;95786.22;4372225;32;20204;-60
2022/07/24 03:46:54;;;;;;;3.07;2.97;;;;;;;21.41;84.41;95778.53;4374613;32;20216;-61
2022/07/24 03:49:19;;;;;;;3.13;2.93;;;;;;;21.43;84.33;95777.06;4398028;32;20191;-60
2022/07/24 03:51:46;;;;;;;2.67;2.57;;;;;;;21.45;84.32;95782.09;4392588;32;20253;-60
2022/07/24 03:54:12;;;;;;;1.83;1.83;;;;;;;21.45;84.20;95780.19;4392853;32;20180;-60
2022/07/24 03:56:38;;;;;;;3.77;3.47;;;;;;;21.41;84.37;95784.72;4395830;32;20202;-60
2022/07/24 03:59:05;;;;;;;2.87;2.77;;;;;;;21.45;84.13;95787.50;4393679;32;20192;-60
2022/07/24 04:01:34;;;;;;;3.90;3.60;;;;;;;21.40;84.19;95779.69;4380295;32;20217;-60
2022/07/24 04:04:04;;;;;;;1.93;1.93;;;;;;;21.45;84.13;95787.50;4400610;32;20195;-60
2022/07/24 04:06:32;;;;;;;3.50;3.30;;;;;;;21.46;84.00;95792.56;4386348;32;20204;-60
2022/07/24 04:09:00;;;;;;;2.93;2.73;;;;;;;21.45;84.14;95798.31;4387358;32;20202;-61
2022/07/24 04:11:27;;;;;;;2.63;2.53;;;;;;;21.43;84.42;95797.88;4373040;32;20210;-61
2022/07/24 04:13:52;;;;;;;3.47;3.27;;;;;;;21.33;84.86;95793.00;4372710;32;20244;-61
2022/07/24 04:16:22;;;;;;;2.93;2.73;;;;;;;21.35;84.83;95798.84;4386436;32;20258;-60
2022/07/24 04:18:48;;;;;;;3.43;2.87;;;;;;;21.40;84.52;95804.00;4380606;32;20191;-61
2022/07/24 04:21:16;;;;;;;3.30;2.33;;;;;;;21.43;84.30;95806.75;4391469;32;20184;-60
2022/07/24 04:23:41;;;;;;;2.93;2.73;;;;;;;21.37;84.64;95805.47;4385885;32;20282;-60
2022/07/24 04:26:19;;;;;;;3.73;3.43;;;;;;;21.23;85.62;95807.81;4372286;32;20192;-60
2022/07/24 04:28:45;;;;;;;3.80;3.43;;;;;;;21.16;86.07;95807.63;4372897;32;20191;-60
2022/07/24 04:31:15;;;;;;;3.23;2.93;;;;;;;21.05;86.82;95809.28;4366529;32;20202;-60
2022/07/24 04:33:41;;;;;;;2.90;2.80;;;;;;;21.06;86.92;95817.03;4388976;32;20199;-60
2022/07/24 04:36:16;;;;;;;5.77;2.67;;;;;;;21.07;86.93;95813.19;4377063;32;20196;-60
2022/07/24 04:38:41;;;;;;;3.03;2.83;;;;;;;21.12;86.77;95804.84;4351973;32;20199;-61
2022/07/24 04:41:17;;;;;;;4.73;2.90;;;;;;;21.15;86.79;95817.63;4396298;32;20279;-60
2022/07/24 04:43:45;;;;;;;3.43;3.17;;;;;;;21.15;86.75;95814.94;4373994;32;20331;-60
2022/07/24 04:46:19;;;;;;;2.07;2.00;;;;;;;21.07;87.06;95818.59;4388554;32;20208;-60
2022/07/24 04:48:44;;;;;;;4.70;4.00;;;;;;;21.13;86.95;95813.72;4383486;32;20279;-60
2022/07/24 04:51:11;;;;;;;2.30;2.20;;;;;;;21.25;86.41;95813.66;4388625;32;20251;-61
2022/07/24 04:53:36;;;;;;;8.40;3.90;;;;;;;21.16;86.99;95815.72;4393890;32;20196;-60
2022/07/24 04:56:02;;;;;;;2.80;2.63;;;;;;;21.06;87.32;95821.63;4384426;32;20179;-61
2022/07/24 04:58:28;;;;;;;2.77;2.67;;;;;;;21.09;87.12;95816.31;4392541;32;20271;-61
2022/07/24 05:00:55;;;;;;;3.53;3.23;;;;;;;21.18;86.89;95822.34;4367984;32;20176;-61
2022/07/24 05:03:22;;;;;;;2.90;2.80;;;;;;;21.17;87.21;95826.19;4375599;32;20184;-55
2022/07/24 05:05:48;;;;;;;3.50;3.30;;;;;;;21.21;86.85;95827.06;4339535;32;20306;-55
2022/07/24 05:08:14;;;;;;;3.23;3.13;;;;;;;21.29;86.53;95830.72;4374699;32;20187;-57
2022/07/24 05:10:41;;;;;;;3.47;3.27;;;;;;;21.24;86.81;95834.47;4390497;32;20199;-56
2022/07/24 05:13:08;;;;;;;3.07;2.90;;;;;;;21.39;86.01;95834.81;4386145;32;20184;-56
2022/07/24 05:15:36;;;;;;;4.33;3.03;;;;;;;21.39;86.10;95829.41;4356446;32;20266;-56
2022/07/24 05:18:02;;;;;;;2.60;2.50;;;;;;;21.42;85.91;95837.56;4328978;32;20269;-54
2022/07/24 05:20:28;;;;;;;3.10;2.67;;;;;;;21.47;86.00;95841.94;4390799;32;20211;-56
2022/07/24 05:22:53;;;;;;;3.33;3.13;;;;;;;21.51;85.77;95837.41;4369011;32;20259;-55
2022/07/24 05:25:20;;;;;;;4.20;3.87;;;;;;;21.49;85.93;95839.66;4386431;32;20244;-56
2022/07/24 05:27:45;;;;;;;3.30;3.10;;;;;;;21.40;86.33;95842.56;4389299;32;20275;-56
2022/07/24 05:30:11;;;;;;;3.17;3.03;;;;;;;21.46;86.30;95835.75;4344611;32;20219;-57
2022/07/24 05:32:37;;;;;;;3.73;3.50;;;;;;;21.47;86.39;95836.53;4386955;32;20247;-56
2022/07/24 05:35:05;;;;;;;2.70;2.60;;;;;;;21.46;86.21;95838.44;4390033;32;20191;-56
2022/07/24 05:37:31;;;;;;;3.67;3.47;;;;;;;21.52;86.19;95836.28;4379720;32;20221;-57
2022/07/24 05:39:57;;;;;;;2.63;2.53;;;;;;;21.52;86.00;95839.75;4399666;32;20195;-56
2022/07/24 05:42:24;;;;;;;2.50;2.40;;;;;;;21.57;85.64;95836.00;4404067;32;20184;-57
2022/07/24 05:44:49;;;;;;;4.13;3.83;;;;;;;21.61;85.58;95842.28;4385420;32;20200;-56
2022/07/24 05:47:16;;;;;;;3.40;3.20;;;;;;;21.51;86.04;95843.59;4384281;32;20225;-55
2022/07/24 05:49:42;;;;;;;3.63;3.43;;;;;;;21.52;85.87;95841.69;4395741;32;20180;-56
2022/07/24 05:52:11;;;;;;;3.47;3.27;;;;;;;21.54;85.99;95836.72;4384468;32;20200;-56
2022/07/24 05:54:37;;;;;;;2.47;2.37;;;;;;;21.62;85.78;95844.59;4388913;32;20188;-56
2022/07/24 05:57:03;;;;;;;3.20;3.00;;;;;;;21.54;86.04;95847.50;4389159;32;20209;-56
2022/07/24 05:59:29;;;;;;;3.67;3.47;;;;;;;21.72;85.11;95848.69;4404707;32;20246;-56
2022/07/24 06:01:59;;;;;;;3.63;3.37;;;;;;;21.76;85.15;95844.16;4352609;32;20204;-56
2022/07/24 06:04:26;;;;;;;3.83;3.63;;;;;;;21.78;85.22;95838.41;4394412;32;20203;-54
2022/07/24 06:06:51;;;;;;;2.50;2.40;;;;;;;21.84;83.90;95840.47;4395767;32;20207;-56
2022/07/24 06:09:17;;;;;;;5.00;4.50;;;;;;;21.88;83.46;95832.44;4387877;32;20218;-56
2022/07/24 06:11:43;;;;;;;2.70;2.60;;;;;;;21.85;83.59;95836.62;4403619;32;20275;-55
2022/07/24 06:14:09;;;;;;;4.13;3.93;;;;;;;21.83;84.04;95836.19;4387923;32;20184;-56
2022/07/24 06:16:35;;;;;;;2.83;2.73;;;;;;;21.82;83.88;95836.59;4405191;32;20229;-57
2022/07/24 06:19:02;;;;;;;3.27;3.17;;;;;;;21.89;83.78;95826.69;4397487;32;20240;-57
2022/07/24 06:21:27;;;;;;;3.37;3.23;;;;;;;21.99;83.84;95835.41;4389446;32;20196;-54
2022/07/24 06:23:52;;;;;;;3.10;2.27;;;;;;;22.11;83.43;95832.59;4395435;32;20268;-56
2022/07/24 06:26:18;;;;;;;2.80;2.70;;;;;;;22.21;83.74;95832.81;4402949;32;20253;-57
2022/07/24 06:28:44;;;;;;;4.50;4.07;;;;;;;22.21;82.85;95832.81;4397711;32;20183;-57
2022/07/24 06:31:15;;;;;;;3.97;3.53;;;;;;;22.31;81.84;95831.47;4408557;32;20188;-55
2022/07/24 06:33:42;;;;;;;3.27;3.07;;;;;;;22.41;80.40;95827.41;4408773;32;20247;-57
2022/07/24 06:36:15;;;;;;;3.20;3.00;;;;;;;22.54;81.22;95824.19;4409622;32;20187;-56
2022/07/24 06:38:43;;;;;;;2.40;2.30;;;;;;;22.68;82.12;95834.50;4406179;32;20168;-57
2022/07/24 06:41:14;;;;;;;5.60;4.87;;;;;;;22.55;77.78;95833.09;4402712;32;20191;-56
2022/07/24 06:43:41;;;;;;;6.17;5.47;;;;;;;22.65;77.20;95834.44;4404561;32;20181;-54
2022/07/24 06:46:17;;;;;;;3.77;3.23;;;;;;;22.74;75.88;95827.66;4400713;32;20190;-54
2022/07/24 06:48:43;;;;;;;2.93;2.73;;;;;;;22.81;76.35;95829.75;4410190;32;20190;-56
2022/07/24 06:51:17;;;;;;;5.27;3.83;;;;;;;22.90;77.57;95833.00;4394710;32;20184;-56
2022/07/24 06:53:46;;;;;;;2.73;2.53;;;;;;;22.94;78.31;95831.13;4407721;32;20221;-57
2022/07/24 06:56:13;;;;;;;3.07;2.97;;;;;;;23.06;74.90;95827.50;4380943;32;20248;-56
2022/07/24 06:58:38;;;;;;;2.73;2.63;;;;;;;23.20;73.67;95833.91;4402565;32;20282;-57
2022/07/24 07:01:14;;;;;;;3.40;3.20;;;;;;;23.27;73.64;95828.62;4387403;32;20196;-56
2022/07/24 07:03:39;;;;;;;3.50;3.20;;;;;;;23.28;73.73;95829.38;4408993;32;20190;-56
2022/07/24 07:06:05;;;;;;;5.87;4.23;;;;;;;23.28;75.52;95830.16;4415914;32;20207;-56
2022/07/24 07:08:40;;;;;;;3.57;3.37;;;;;;;23.32;74.76;95832.94;4409097;32;20204;-55
2022/07/24 07:11:14;;;;;;;3.33;3.13;;;;;;;23.45;72.76;95834.31;4397160;32;20235;-54
2022/07/24 07:13:40;;;;;;;2.97;2.87;;;;;;;23.39;73.62;95829.56;4376860;32;20214;-56
2022/07/24 07:16:15;;;;;;;2.63;2.53;;;;;;;23.48;73.55;95830.91;4403690;32;20222;-53
2022/07/24 07:18:42;;;;;;;3.10;2.90;;;;;;;23.47;73.51;95833.97;4384439;32;20180;-57
2022/07/24 07:21:14;;;;;;;2.67;2.30;;;;;;;23.51;73.73;95837.47;4359789;32;20188;-56
2022/07/24 07:23:42;;;;;;;2.80;2.70;;;;;;;23.57;72.50;95833.34;4378034;32;20199;-55
2022/07/24 07:26:16;;;;;;;2.60;2.50;;;;;;;23.72;71.37;95837.06;4369664;32;20263;-53
2022/07/24 07:28:42;;;;;;;2.87;2.73;;;;;;;23.78;69.99;95841.81;4370749;32;20180;-56
2022/07/24 07:31:15;;;;;;;1.97;1.87;;;;;;;23.88;68.54;95835.78;4382966;32;20198;-53
2022/07/24 07:33:45;;;;;;;2.47;2.37;;;;;;;24.02;65.89;95831.69;4382239;32;20200;-56
2022/07/24 07:36:15;;;;;;;2.70;2.50;;;;;;;24.03;66.18;95839.44;4390823;32;20200;-56
2022/07/24 07:38:42;;;;;;;2.13;2.07;;;;;;;24.11;65.84;95843.06;4397620;32;20198;-56
2022/07/24 07:41:15;;;;;;;1.83;1.80;;;;;;;24.20;65.82;95836.19;4391206;32;20196;-55
2022/07/24 07:43:41;;;;;;;2.13;1.93;;;;;;;24.20;64.50;95829.97;4364416;32;20210;-54
2022/07/24 07:46:17;;;;;;;2.33;2.23;;;;;;;24.24;65.43;95830.84;4368536;32;20230;-55
2022/07/24 07:48:43;;;;;;;2.20;2.07;;;;;;;24.30;64.32;95830.16;4368810;32;20221;-56
2022/07/24 07:51:21;;;;;;;2.17;2.07;;;;;;;24.28;64.48;95828.97;4383236;32;20185;-55
2022/07/24 07:53:48;;;;;;;2.07;1.97;;;;;;;24.44;63.93;95828.75;4407144;32;20172;-55
2022/07/24 07:56:15;;;;;;;2.00;1.90;;;;;;;24.54;61.09;95834.28;4399329;32;20248;-55
2022/07/24 07:58:40;;;;;;;1.50;1.50;;;;;;;24.61;61.52;95833.59;4365131;32;20186;-54
2022/07/24 08:01:20;;;;;;;4.40;2.63;;;;;;;24.55;60.86;95838.56;4321681;32;20322;-53
2022/07/24 08:03:47;;;;;;;2.00;1.90;;;;;;;24.73;59.41;95833.38;4380815;32;20189;-55
2022/07/24 08:06:23;;;;;;;2.73;2.57;;;;;;;24.74;59.28;95831.41;4372206;32;20202;-56
2022/07/24 08:08:48;;;;;;;1.63;1.63;;;;;;;24.76;59.20;95839.97;4376074;32;20196;-57
2022/07/24 08:11:17;;;;;;;2.60;2.50;;;;;;;24.75;59.89;95843.81;4385503;32;20275;-56
2022/07/24 08:13:44;;;;;;;3.90;3.70;;;;;;;24.84;59.48;95838.87;4395417;32;20196;-54
2022/07/24 08:16:18;;;;;;;1.90;1.90;;;;;;;24.85;60.14;95829.59;4396693;32;20196;-56
2022/07/24 08:18:45;;;;;;;1.90;1.90;;;;;;;24.82;60.32;95839.25;4375110;32;20196;-55
2022/07/24 08:21:17;;;;;;;19.73;16.10;;;;;;;24.89;59.08;95830.41;4387544;32;20203;-55
2022/07/24 08:23:45;;;;;;;8.03;7.53;;;;;;;24.87;60.22;95832.72;4393356;32;20233;-56
2022/07/24 08:26:16;;;;;;;9.50;5.10;;;;;;;24.90;60.84;95832.75;4369361;32;20210;-56
2022/07/24 08:28:42;;;;;;;4.97;4.53;;;;;;;24.99;58.23;95832.47;4381983;32;20184;-56
2022/07/24 08:31:13;;;;;;;6.13;5.67;;;;;;;24.95;58.40;95834.38;4361019;32;20211;-56
2022/07/24 08:33:39;;;;;;;2.60;2.50;;;;;;;24.99;58.15;95822.41;4373363;32;20184;-56
2022/07/24 08:36:17;;;;;;;2.50;2.40;;;;;;;25.04;57.81;95829.44;4366188;32;20195;-56
2022/07/24 08:38:44;;;;;;;29.37;23.13;;;;;;;25.09;57.55;95831.81;4391243;32;20283;-55
2022/07/24 08:41:13;;;;;;;4.73;4.33;;;;;;;25.21;56.81;95834.22;4383439;32;20283;-56
2022/07/24 08:43:39;;;;;;;1.70;1.60;;;;;;;25.25;57.34;95826.91;4382294;32;20201;-56
2022/07/24 08:46:11;;;;;;;1.80;1.80;;;;;;;25.26;58.74;95825.75;4386205;32;20211;-56
2022/07/24 08:48:44;;;;;;;1.47;1.47;;;;;;;25.33;57.33;95831.25;4379612;32;20273;-56
2022/07/24 08:51:17;;;;;;;1.60;1.60;;;;;;;25.47;56.03;95824.34;4390213;32;20267;-54
2022/07/24 08:53:44;;;;;;;1.40;1.40;;;;;;;25.47;56.28;95827.06;4377226;32;20196;-56
2022/07/24 08:56:11;;;;;;;1.80;1.70;;;;;;;25.41;56.36;95821.19;4379739;32;20190;-55
2022/07/24 08:58:39;;;;;;;2.07;1.97;;;;;;;25.50;55.67;95823.63;4379771;32;20235;-57
2022/07/24 09:01:11;;;;;;;2.73;2.63;;;;;;;25.41;55.72;95826.63;4369438;32;20196;-64
2022/07/24 09:03:45;;;;;;;2.73;2.53;;;;;;;25.41;55.91;95823.91;4388983;32;20199;-63
2022/07/24 09:06:14;;;;;;;2.13;2.03;;;;;;;25.48;56.00;95825.91;4372649;32;20179;-63
2022/07/24 09:08:44;;;;;;;2.90;2.70;;;;;;;25.58;55.37;95819.78;4390768;32;20184;-63
2022/07/24 09:11:10;;;;;;;2.17;2.07;;;;;;;25.60;55.72;95825.63;4397886;32;20175;-63
2022/07/24 09:16:25;;;;;;;3.90;3.60;;;;;;;25.67;55.63;95822.97;4388882;32;20199;-63
2022/07/24 09:19:09;;;;;;;1.90;1.87;;;;;;;25.53;56.83;95823.63;4361261;32;20180;-63
2022/07/24 09:21:41;;;;;;;2.30;2.20;;;;;;;25.46;56.49;95814.66;4362994;32;20184;-63
2022/07/24 09:24:21;;;;;;;1.40;1.40;;;;;;;25.47;56.29;95810.78;4354367;32;20238;-63
2022/07/24 09:26:48;;;;;;;2.33;2.23;;;;;;;25.40;56.62;95813.44;4355063;32;20176;-63
2022/07/24 09:29:17;;;;;;;2.20;2.10;;;;;;;25.43;56.82;95805.31;4396066;32;20179;-63
2022/07/24 09:31:59;;;;;;;2.57;2.37;;;;;;;25.52;56.58;95815.87;4389242;32;20184;-63
2022/07/24 09:34:27;;;;;;;3.13;2.93;;;;;;;25.73;55.69;95810.59;4381586;32;20191;-63
2022/07/24 09:37:04;;;;;;;1.97;1.87;;;;;;;25.82;55.56;95808.31;4398068;32;20190;-63
2022/07/24 09:39:32;;;;;;;2.67;2.57;;;;;;;25.91;55.36;95811.50;4399049;32;20187;-63
2022/07/24 09:42:00;;;;;;;2.17;2.17;;;;;;;26.03;55.11;95818.53;4397524;32;20217;-63
2022/07/24 09:44:28;;;;;;;2.57;2.37;;;;;;;26.08;54.58;95810.00;4372499;32;20229;-63
2022/07/24 09:46:58;;;;;;;1.63;1.60;;;;;;;26.05;54.51;95810.78;4400560;32;20213;-63
2022/07/24 09:49:25;;;;;;;3.17;3.07;;;;;;;26.05;55.21;95810.00;4385906;32;20188;-63
2022/07/24 09:52:33;;;;;;;3.43;3.13;;;;;;;26.07;54.42;95803.03;4391544;32;20218;-63
2022/07/24 09:54:58;;;;;;;3.13;2.93;;;;;;;26.16;53.20;95814.34;4343476;32;20185;-63
2022/07/24 09:57:29;;;;;;;2.63;2.47;;;;;;;26.05;54.33;95801.84;4392501;32;20175;-64
2022/07/24 10:00:01;;;;;;;2.37;2.27;;;;;;;26.08;54.08;95798.34;4358568;32;20188;-63
2022/07/24 10:02:34;;;;;;;1.80;1.80;;;;;;;26.32;53.60;95795.00;4370719;32;20192;-64
2022/07/24 10:05:03;;;;;;;1.07;1.07;;;;;;;26.50;53.09;95800.50;4398114;32;20184;-64
2022/07/24 10:07:30;;;;;;;1.83;1.70;;;;;;;26.54;51.93;95793.91;4379994;32;20184;-63
2022/07/24 10:09:59;;;;;;;2.57;2.37;;;;;;;26.57;52.08;95793.16;4376079;32;20224;-63
2022/07/24 10:12:27;;;;;;;2.97;2.50;;;;;;;26.60;51.70;95792.34;4368509;32;20188;-64
2022/07/24 10:14:56;;;;;;;2.57;2.47;;;;;;;26.61;51.69;95784.97;4360259;32;20187;-64
2022/07/24 10:17:40;;;;;;;1.67;1.67;;;;;;;26.57;51.95;95786.91;4359396;32;20222;-64
2022/07/24 10:20:12;;;;;;;2.40;2.20;;;;;;;26.79;51.15;95788.53;4402002;32;20221;-64
2022/07/24 10:23:04;;;;;;;2.43;2.33;;;;;;;26.85;51.12;95786.97;4391208;32;20195;-64
2022/07/24 10:25:47;;;;;;;3.57;1.87;;;;;;;26.93;50.99;95791.28;4384674;32;20255;-64
2022/07/24 10:28:20;;;;;;;20.77;2.00;;;;;;;26.99;50.89;95784.31;4384483;32;20200;-64
2022/07/24 10:30:47;;;;;;;6.20;5.80;;;;;;;26.97;50.38;95783.12;4401127;32;20206;-64
2022/07/24 10:33:13;;;;;;;2.30;2.20;;;;;;;27.00;50.47;95785.09;4379482;32;20251;-64
2022/07/24 10:35:43;;;;;;;1.83;1.83;;;;;;;27.00;50.37;95779.63;4386359;32;20201;-63
2022/07/24 10:38:29;;;;;;;1.60;1.60;;;;;;;26.98;50.48;95784.69;4374126;32;20215;-64
2022/07/24 10:41:02;;;;;;;1.50;1.50;;;;;;;26.98;50.60;95779.25;4379782;32;20303;-64
2022/07/24 10:43:28;;;;;;;2.17;2.07;;;;;;;26.89;51.39;95776.09;4399292;32;20196;-64
2022/07/24 10:46:02;;;;;;;2.07;1.97;;;;;;;26.92;50.52;95776.09;4401753;32;20226;-64
2022/07/24 10:48:32;;;;;;;1.70;1.60;;;;;;;26.88;50.63;95767.12;4359455;32;20218;-63
2022/07/24 10:51:01;;;;;;;2.93;2.73;;;;;;;26.90;49.60;95766.75;4396470;32;20197;-63
2022/07/24 10:53:34;;;;;;;3.00;2.80;;;;;;;26.89;49.80;95767.91;4391999;32;20266;-63
2022/07/24 10:56:38;;;;;;;2.13;2.03;;;;;;;26.87;50.04;95768.28;4395755;32;20176;-64
2022/07/24 10:59:08;;;;;;;2.00;1.90;;;;;;;26.74;50.72;95769.06;4388340;32;20215;-64
2022/07/24 11:01:36;;;;;;;1.80;1.80;;;;;;;26.73;50.26;95770.22;4399598;32;20238;-64
2022/07/24 11:04:20;;;;;;;2.23;2.23;;;;;;;26.88;49.98;95760.91;4396528;32;20210;-64
2022/07/24 11:06:53;;;;;;;2.00;1.90;;;;;;;26.85;49.50;95764.41;4394262;32;20266;-64
2022/07/24 11:09:21;;;;;;;3.03;2.77;;;;;;;26.92;50.31;95769.88;4404949;32;20297;-64
2022/07/24 11:11:53;;;;;;;1.87;1.87;;;;;;;27.06;49.44;95763.66;4364765;32;20256;-64
2022/07/24 11:14:41;;;;;;;1.57;1.57;;;;;;;27.14;49.01;95765.25;4381058;32;20263;-64
2022/07/24 11:17:38;;;;;;;2.27;2.07;;;;;;;27.14;48.98;95760.56;4394897;32;20259;-64
2022/07/24 11:20:07;;;;;;;1.90;1.80;;;;;;;26.96;49.06;95754.34;4388803;32;20202;-64
2022/07/24 11:22:44;;;;;;;1.33;1.33;;;;;;;26.82;49.82;95759.72;4381883;32;20180;-64
2022/07/24 11:25:21;;;;;;;2.23;2.13;;;;;;;26.67;50.85;95748.81;4393696;32;20217;-63
2022/07/24 11:28:14;;;;;;;2.00;1.77;;;;;;;26.60;51.50;95750.78;4365993;32;20199;-63
2022/07/24 11:30:45;;;;;;;2.47;2.37;;;;;;;26.61;50.24;95750.34;4391369;32;20176;-64
2022/07/24 11:33:21;;;;;;;2.83;2.43;;;;;;;26.74;49.76;95741.84;4381111;32;20191;-64
2022/07/24 11:35:49;;;;;;;2.00;1.90;;;;;;;26.87;48.97;95745.72;4350982;32;20198;-64
2022/07/24 11:38:14;;;;;;;2.00;1.97;;;;;;;26.96;48.74;95743.44;4383488;32;20180;-64
2022/07/24 11:40:39;;;;;;;2.80;2.63;;;;;;;27.02;48.58;95741.88;4377197;32;20191;-64
2022/07/24 11:43:09;;;;;;;2.20;2.13;;;;;;;26.96;49.10;95743.44;4406831;32;20176;-64
2022/07/24 11:45:35;;;;;;;2.10;2.00;;;;;;;26.88;48.59;95737.16;4402875;32;20194;-63
2022/07/24 11:48:01;;;;;;;1.53;1.53;;;;;;;26.79;49.32;95736.78;4403283;32;20176;-63